Inspiration — C6FM5 — position and weather

sailwx.info

Track history (hours):
 
Tides and Currents Weather Stations Pressure Air Temp Water Temp Dewpoint Dewpoint Depression Visibility Wind Speed Wind Dir Waves Ship Positions

Inspiration

Operator: Carnival Cruise Lines

Last reported at 2019-Dec-07 23:00 UTC. Time now 2019-Dec-08 11:31 UTC.
Position N 31°24' W 117°18'.

Type: Ship. MMSI: 309484000.

Wind from 050 at 15 knots

Barometer 1020.3 mb
Air temperature 17.0 ° C
Visibility: greater than 5.4 NM
Dewpoint 15.4 ° C
Water temperature 17.0 ° C

Date/timePositionNaut miles runAvg speedWind from/ knotsBaromVisibWave heightAir tempDewpointWater temp
2019-Dec-07 23:00N 31°24' W 117°18'54 7.2 050 / 151020.3 5.4 17.015.417.0
2019-Dec-07 15:30N 32°01' W 118°04'8 8.1
2019-Dec-07 14:31N 32°08' W 118°01'4 8.0
2019-Dec-07 14:00N 32°12' W 117°59'30 8.6
2019-Dec-07 10:30N 32°41' W 117°48'8 8.0
2019-Dec-07 09:30N 32°48' W 117°52'8 8.1
2019-Dec-07 08:30N 32°56' W 117°55'12 8.2
2019-Dec-07 07:00N 33°07' W 118°00'4 8.2
2019-Dec-07 06:30N 33°11' W 118°02'17 8.3
2019-Dec-07 04:30N 33°26' W 118°09'13 8.9
2019-Dec-07 03:00N 33°40' W 118°12'5 2.6
2019-Dec-07 00:56N 33°45' W 118°11'0 0.0
2019-Dec-06 23:59N 33°45' W 118°11'0 0.0
2019-Dec-06 23:29N 33°45' W 118°11'0 0.0
2019-Dec-06 21:29N 33°45' W 118°11'0 0.0
2019-Dec-06 20:59N 33°45' W 118°11'0 0.0
2019-Dec-06 19:59N 33°45' W 118°11'0 0.0
2019-Dec-06 19:29N 33°45' W 118°11'0 0.0
2019-Dec-06 17:59N 33°45' W 118°11'0 0.0
2019-Dec-06 16:59N 33°45' W 118°11'0 0.0
2019-Dec-06 15:59N 33°45' W 118°11'0 0.0
2019-Dec-06 14:29N 33°45' W 118°11'0 0.0
2019-Dec-06 13:59N 33°45' W 118°11'1 1.0
2019-Dec-06 13:00N 33°44' W 118°11'5 9.8
2019-Dec-06 12:30N 33°39' W 118°10'4 7.4
2019-Dec-06 12:00N 33°36' W 118°10'7 7.3
2019-Dec-06 11:00N 33°29' W 118°06'29 7.2
2019-Dec-06 07:00N 33°02' W 117°55'4 7.2
2019-Dec-06 06:31N 32°58' W 117°54'14 7.1
2019-Dec-06 04:30N 32°45' W 117°48'19 7.8
2019-Dec-06 02:00N 32°27' W 117°41'4 7.9
2019-Dec-06 01:30N 32°23' W 117°39'22 7.4
2019-Dec-05 22:31N 32°05' W 117°23'3 0.1
2019-Dec-04 09:30N 32°07' W 117°27'9 9.0
2019-Dec-04 08:30N 32°12' W 117°35'20 9.8
2019-Dec-04 06:30N 32°30' W 117°45'10 9.8
2019-Dec-04 05:30N 32°39' W 117°50'5 9.7
2019-Dec-04 05:00N 32°43' W 117°53'10 9.5
2019-Dec-04 04:00N 32°52' W 117°58'5 9.4
2019-Dec-04 03:30N 32°56' W 118°01'9 9.5
2019-Dec-04 02:30N 33°04' W 118°06'5 9.6
2019-Dec-04 02:00N 33°08' W 118°08'14 9.2
2019-Dec-04 00:30N 33°20' W 118°17'2 1.6
2019-Dec-03 23:28N 33°21' W 118°19'0 0.0
2019-Dec-03 21:28N 33°21' W 118°19'0 0.0
2019-Dec-03 20:58N 33°21' W 118°19'0 0.0
2019-Dec-03 20:28N 33°21' W 118°19'0 0.0
2019-Dec-03 19:58N 33°21' W 118°19'0 0.0
2019-Dec-03 16:55N 33°21' W 118°19'0 0.0
2019-Dec-03 15:00N 33°21' W 118°19'10 6.3
2019-Dec-03 13:30N 33°12' W 118°15'14 7.1
2019-Dec-03 11:30N 33°00' W 118°06'16 7.8
2019-Dec-03 09:30N 32°51' W 117°51'3 5.0
2019-Dec-03 09:00N 32°48' W 117°51'4 8.1
2019-Dec-03 08:30N 32°52' W 117°53'9 8.9
2019-Dec-03 07:30N 32°60' W 117°57'9 9.1
2019-Dec-03 06:30N 33°08' W 118°01'9 9.3
2019-Dec-03 05:30N 33°17' W 118°05'9 9.5
2019-Dec-03 04:30N 33°26' W 118°09'5 9.9
2019-Dec-03 04:00N 33°31' W 118°11'5 9.7
2019-Dec-03 03:30N 33°35' W 118°13'10 3.3
2019-Dec-03 00:28N 33°45' W 118°11'0 0.0
2019-Dec-02 22:58N 33°45' W 118°11'0 0.0
2019-Dec-02 22:28N 33°45' W 118°11'0 0.0
2019-Dec-02 21:28N 33°45' W 118°11'0 0.0
2019-Dec-02 19:25N 33°45' W 118°11'0 0.0
2019-Dec-02 18:55N 33°45' W 118°11'0 0.0
2019-Dec-02 18:25N 33°45' W 118°11'0 0.0
2019-Dec-02 17:28N 33°45' W 118°11'0 0.0
2019-Dec-02 16:58N 33°45' W 118°11'0 0.0
2019-Dec-02 15:58N 33°45' W 118°11'1 0.3
2019-Dec-02 13:00N 33°44' W 118°11'14 9.4
2019-Dec-02 11:30N 33°30' W 118°08'29 9.6
2019-Dec-02 08:30N 33°04' W 117°54'1717.2
2019-Dec-02 07:30N 32°48' W 117°48'919.0
2019-Dec-02 07:00N 32°39' W 117°43'1919.0
2019-Dec-02 06:00N 32°21' W 117°35'19 0.5
2019-Nov-30 13:31N 32°16' W 117°57'8 7.6
2019-Nov-30 12:30N 32°24' W 117°54'55 7.8
2019-Nov-30 05:30N 33°17' W 118°05'5 9.4
2019-Nov-30 05:00N 33°22' W 118°07'14 9.5
2019-Nov-30 03:30N 33°35' W 118°13'9 9.3
2019-Nov-30 02:30N 33°44' W 118°11'1 0.7
2019-Nov-30 00:58N 33°45' W 118°11'0 0.0
2019-Nov-29 22:58N 33°45' W 118°11'0 0.0
2019-Nov-29 21:28N 33°45' W 118°11'0 0.0
2019-Nov-29 20:52N 33°45' W 118°11'0 0.0
2019-Nov-29 20:29N 33°45' W 118°11'0 0.0
2019-Nov-29 19:28N 33°45' W 118°11'0 0.0
2019-Nov-29 17:58N 33°45' W 118°11'0 0.0
2019-Nov-29 17:28N 33°45' W 118°11'0 0.0
2019-Nov-29 16:28N 33°45' W 118°11'0 0.0
2019-Nov-29 15:58N 33°45' W 118°11'0 0.0
2019-Nov-29 15:22N 33°45' W 118°11'0 0.0
2019-Nov-29 13:58N 33°45' W 118°11'11 5.4
2019-Nov-29 12:00N 33°35' W 118°09'5 9.0
2019-Nov-29 11:30N 33°30' W 118°07'19 9.4
2019-Nov-29 09:30N 33°13' W 117°60'19 9.8
2019-Nov-29 07:31N 32°55' W 117°51'5 9.9
2019-Nov-29 07:00N 32°50' W 117°49'5 9.8
2019-Nov-29 06:30N 32°45' W 117°47'1711.4
2019-Nov-29 05:00N 32°30' W 117°39'713.5
2019-Nov-29 04:30N 32°23' W 117°36'1611.6
2019-Nov-29 03:08N 32°10' W 117°26'3311.8
2019-Nov-29 00:18N 31°54' W 116°51'12 4.4
2019-Nov-28 21:31N 31°50' W 116°37'11 7.1
2019-Nov-28 20:01N 31°46' W 116°49'1217.0
2019-Nov-28 19:19N 31°42' W 117°02'7 0.5
2019-Nov-28 05:00N 31°36' W 117°06'   320 / 31006.2 5.4 14.012.318.0
Track history (hours):
 
Tides and Currents Weather Stations Pressure Air Temp Water Temp Dewpoint Dewpoint Depression Visibility Wind Speed Wind Dir Waves Ship Positions

Inspiration

Operator: Carnival Cruise Lines

Last reported at 2019-Dec-07 23:00 UTC. Time now 2019-Dec-08 11:31 UTC.
Position N 31°24' W 117°18'.

Type: Ship. MMSI: 309484000.

Wind from 050 at 15 knots

Barometer 1020.3 mb
Air temperature 17.0 ° C
Visibility: greater than 5.4 NM
Dewpoint 15.4 ° C
Water temperature 17.0 ° C

Date/timePositionNaut miles runAvg speedWind from/ knotsBaromVisibWave heightAir tempDewpointWater temp
2019-Dec-07 23:00N 31°24' W 117°18'54 7.2 050 / 151020.3 5.4 17.015.417.0
2019-Dec-07 15:30N 32°01' W 118°04'8 8.1
2019-Dec-07 14:31N 32°08' W 118°01'4 8.0
2019-Dec-07 14:00N 32°12' W 117°59'30 8.6
2019-Dec-07 10:30N 32°41' W 117°48'8 8.0
2019-Dec-07 09:30N 32°48' W 117°52'8 8.1
2019-Dec-07 08:30N 32°56' W 117°55'12 8.2
2019-Dec-07 07:00N 33°07' W 118°00'4 8.2
2019-Dec-07 06:30N 33°11' W 118°02'17 8.3
2019-Dec-07 04:30N 33°26' W 118°09'13 8.9
2019-Dec-07 03:00N 33°40' W 118°12'5 2.6
2019-Dec-07 00:56N 33°45' W 118°11'0 0.0
2019-Dec-06 23:59N 33°45' W 118°11'0 0.0
2019-Dec-06 23:29N 33°45' W 118°11'0 0.0
2019-Dec-06 21:29N 33°45' W 118°11'0 0.0
2019-Dec-06 20:59N 33°45' W 118°11'0 0.0
2019-Dec-06 19:59N 33°45' W 118°11'0 0.0
2019-Dec-06 19:29N 33°45' W 118°11'0 0.0
2019-Dec-06 17:59N 33°45' W 118°11'0 0.0
2019-Dec-06 16:59N 33°45' W 118°11'0 0.0
2019-Dec-06 15:59N 33°45' W 118°11'0 0.0
2019-Dec-06 14:29N 33°45' W 118°11'0 0.0
2019-Dec-06 13:59N 33°45' W 118°11'1 1.0
2019-Dec-06 13:00N 33°44' W 118°11'5 9.8
2019-Dec-06 12:30N 33°39' W 118°10'4 7.4
2019-Dec-06 12:00N 33°36' W 118°10'7 7.3
2019-Dec-06 11:00N 33°29' W 118°06'29 7.2
2019-Dec-06 07:00N 33°02' W 117°55'4 7.2
2019-Dec-06 06:31N 32°58' W 117°54'14 7.1
2019-Dec-06 04:30N 32°45' W 117°48'19 7.8
2019-Dec-06 02:00N 32°27' W 117°41'4 7.9
2019-Dec-06 01:30N 32°23' W 117°39'22 7.4
2019-Dec-05 22:31N 32°05' W 117°23'3 0.1
2019-Dec-04 09:30N 32°07' W 117°27'9 9.0
2019-Dec-04 08:30N 32°12' W 117°35'20 9.8
2019-Dec-04 06:30N 32°30' W 117°45'10 9.8
2019-Dec-04 05:30N 32°39' W 117°50'5 9.7
2019-Dec-04 05:00N 32°43' W 117°53'10 9.5
2019-Dec-04 04:00N 32°52' W 117°58'5 9.4
2019-Dec-04 03:30N 32°56' W 118°01'9 9.5
2019-Dec-04 02:30N 33°04' W 118°06'5 9.6
2019-Dec-04 02:00N 33°08' W 118°08'14 9.2
2019-Dec-04 00:30N 33°20' W 118°17'2 1.6
2019-Dec-03 23:28N 33°21' W 118°19'0 0.0
2019-Dec-03 21:28N 33°21' W 118°19'0 0.0
2019-Dec-03 20:58N 33°21' W 118°19'0 0.0
2019-Dec-03 20:28N 33°21' W 118°19'0 0.0
2019-Dec-03 19:58N 33°21' W 118°19'0 0.0
2019-Dec-03 16:55N 33°21' W 118°19'0 0.0
2019-Dec-03 15:00N 33°21' W 118°19'10 6.3
2019-Dec-03 13:30N 33°12' W 118°15'14 7.1
2019-Dec-03 11:30N 33°00' W 118°06'16 7.8
2019-Dec-03 09:30N 32°51' W 117°51'3 5.0
2019-Dec-03 09:00N 32°48' W 117°51'4 8.1
2019-Dec-03 08:30N 32°52' W 117°53'9 8.9
2019-Dec-03 07:30N 32°60' W 117°57'9 9.1
2019-Dec-03 06:30N 33°08' W 118°01'9 9.3
2019-Dec-03 05:30N 33°17' W 118°05'9 9.5
2019-Dec-03 04:30N 33°26' W 118°09'5 9.9
2019-Dec-03 04:00N 33°31' W 118°11'5 9.7
2019-Dec-03 03:30N 33°35' W 118°13'10 3.3
2019-Dec-03 00:28N 33°45' W 118°11'0 0.0
2019-Dec-02 22:58N 33°45' W 118°11'0 0.0
2019-Dec-02 22:28N 33°45' W 118°11'0 0.0
2019-Dec-02 21:28N 33°45' W 118°11'0 0.0
2019-Dec-02 19:25N 33°45' W 118°11'0 0.0
2019-Dec-02 18:55N 33°45' W 118°11'0 0.0
2019-Dec-02 18:25N 33°45' W 118°11'0 0.0
2019-Dec-02 17:28N 33°45' W 118°11'0 0.0
2019-Dec-02 16:58N 33°45' W 118°11'0 0.0
2019-Dec-02 15:58N 33°45' W 118°11'1 0.3
2019-Dec-02 13:00N 33°44' W 118°11'14 9.4
2019-Dec-02 11:30N 33°30' W 118°08'29 9.6
2019-Dec-02 08:30N 33°04' W 117°54'1717.2
2019-Dec-02 07:30N 32°48' W 117°48'919.0
2019-Dec-02 07:00N 32°39' W 117°43'1919.0
2019-Dec-02 06:00N 32°21' W 117°35'19 0.5
2019-Nov-30 13:31N 32°16' W 117°57'8 7.6
2019-Nov-30 12:30N 32°24' W 117°54'55 7.8
2019-Nov-30 05:30N 33°17' W 118°05'5 9.4
2019-Nov-30 05:00N 33°22' W 118°07'14 9.5
2019-Nov-30 03:30N 33°35' W 118°13'9 9.3
2019-Nov-30 02:30N 33°44' W 118°11'1 0.7
2019-Nov-30 00:58N 33°45' W 118°11'0 0.0
2019-Nov-29 22:58N 33°45' W 118°11'0 0.0
2019-Nov-29 21:28N 33°45' W 118°11'0 0.0
2019-Nov-29 20:52N 33°45' W 118°11'0 0.0
2019-Nov-29 20:29N 33°45' W 118°11'0 0.0
2019-Nov-29 19:28N 33°45' W 118°11'0 0.0
2019-Nov-29 17:58N 33°45' W 118°11'0 0.0
2019-Nov-29 17:28N 33°45' W 118°11'0 0.0
2019-Nov-29 16:28N 33°45' W 118°11'0 0.0
2019-Nov-29 15:58N 33°45' W 118°11'0 0.0
2019-Nov-29 15:22N 33°45' W 118°11'0 0.0
2019-Nov-29 13:58N 33°45' W 118°11'11 5.4
2019-Nov-29 12:00N 33°35' W 118°09'5 9.0
2019-Nov-29 11:30N 33°30' W 118°07'19 9.4
2019-Nov-29 09:30N 33°13' W 117°60'19 9.8
2019-Nov-29 07:31N 32°55' W 117°51'5 9.9
2019-Nov-29 07:00N 32°50' W 117°49'5 9.8
2019-Nov-29 06:30N 32°45' W 117°47'1711.4
2019-Nov-29 05:00N 32°30' W 117°39'713.5
2019-Nov-29 04:30N 32°23' W 117°36'1611.6
2019-Nov-29 03:08N 32°10' W 117°26'3311.8
2019-Nov-29 00:18N 31°54' W 116°51'12 4.4
2019-Nov-28 21:31N 31°50' W 116°37'11 7.1
2019-Nov-28 20:01N 31°46' W 116°49'1217.0
2019-Nov-28 19:19N 31°42' W 117°02'7 0.5
2019-Nov-28 05:00N 31°36' W 117°06'   320 / 31006.2 5.4 14.012.318.0

Dump ship's entire track history